Niaqornaa

KL  EN  DA
ASIAQ
Weather Now GREENLAND SURVEY
Updated [WGT/WGST] Temperature [°C] Wind [m/s] Air pressure [hPa] Relative humidity [%] Precipitation [mm]
Present Wind chill Speed Max
20.04 16:40n/an/an/an/an/an/an/a
20.04 16:30n/an/an/an/an/an/an/a
20.04 16:20n/an/an/an/an/an/an/a
20.04 16:10n/an/an/an/an/an/an/a
20.04 16:00n/an/an/an/an/an/an/a
20.04 15:50n/an/an/an/an/an/an/a
20.04 15:40n/an/an/an/an/an/an/a
20.04 15:30n/an/an/an/an/an/an/a
20.04 15:20n/an/an/an/an/an/an/a
20.04 15:10n/an/an/an/an/an/an/a
20.04 15:00n/an/an/an/an/an/an/a
20.04 14:50n/an/an/an/an/an/an/a
20.04 14:40n/an/an/an/an/an/an/a
20.04 14:30n/an/an/an/an/an/an/a
20.04 14:20n/an/an/an/an/an/an/a
20.04 14:10n/an/an/an/an/an/an/a
20.04 14:00n/an/an/an/an/an/an/a
20.04 13:50n/an/an/an/an/an/an/a
20.04 13:40n/an/an/an/an/an/an/a
20.04 13:30n/an/an/an/an/an/an/a
20.04 13:20n/an/an/an/an/an/an/a
20.04 13:10n/an/an/an/an/an/an/a
20.04 13:00n/an/an/an/an/an/an/a
20.04 12:50n/an/an/an/an/an/an/a
20.04 12:40n/an/an/an/an/an/an/a
20.04 12:30n/an/an/an/an/an/an/a
20.04 12:20n/an/an/an/an/an/an/a
20.04 12:10n/an/an/an/an/an/an/a
20.04 12:00n/an/an/an/an/an/an/a
20.04 11:50n/an/an/an/an/an/an/a
20.04 11:40n/an/an/an/an/an/an/a
20.04 11:30n/an/an/an/an/an/an/a
20.04 11:20n/an/an/an/an/an/an/a
20.04 11:10n/an/an/an/an/an/an/a
20.04 11:00n/an/an/an/an/an/an/a
20.04 10:50n/an/an/an/an/an/an/a
20.04 10:40n/an/an/an/an/an/an/a
20.04 10:30n/an/an/an/an/an/an/a
20.04 10:20n/an/an/an/an/an/an/a
20.04 10:10n/an/an/an/an/an/an/a
20.04 10:00n/an/an/an/an/an/an/a
20.04 09:50n/an/an/an/an/an/an/a
20.04 09:40n/an/an/an/an/an/an/a
20.04 09:30n/an/an/an/an/an/an/a
20.04 09:20n/an/an/an/an/an/an/a
20.04 09:10n/an/an/an/an/an/an/a
20.04 09:00n/an/an/an/an/an/an/a
20.04 08:50n/an/an/an/an/an/an/a
20.04 08:40n/an/an/an/an/an/an/a
20.04 08:30n/an/an/an/an/an/an/a
20.04 08:20n/an/an/an/an/an/an/a
20.04 08:10n/an/an/an/an/an/an/a
20.04 08:00n/an/an/an/an/an/an/a
20.04 07:50n/an/an/an/an/an/an/a
20.04 07:40n/an/an/an/an/an/an/a
20.04 07:30n/an/an/an/an/an/an/a
20.04 07:20n/an/an/an/an/an/an/a
20.04 07:10n/an/an/an/an/an/an/a
20.04 07:00-3,4-10,67,9 ⇙10,999449n/a
20.04 06:50-3,4-10,36,6 ⇙9,499648n/a
20.04 06:40-3,6-10,16,1 ⇙7,999646n/a
20.04 06:30-3,5-10,57,1 ⇙8,599648n/a
20.04 06:20-3,6-10,26,3 ⇙8,399642n/a
20.04 06:10-3,6-10,26,4 ⇙8,499643n/a
20.04 06:00-3,5-10,06,0 ⇙7,999646n/a
20.04 05:50-3,7-10,15,7 ⇙7,499646n/a
20.04 05:40-4,0-9,64,7 ⇙7,699647n/a
20.04 05:30-3,9-10,46,1 ⇙8,899645n/a
20.04 05:20-3,8-10,26,0 ⇙7,999642n/a
20.04 05:10-3,7-10,36,2 ⇙7,999642n/a
20.04 05:00-3,8-10,46,0 ⇙8,399649n/a
20.04 04:50-4,0-10,45,9 ⇙8,199652n/a
20.04 04:40-3,9-10,66,3 ⇙7,999651n/a
20.04 04:30-3,9-9,94,9 ⇙8,199650n/a
20.04 04:20-4,0-10,25,5 ⇙8,099656n/a
20.04 04:10-4,0-10,35,4 ⇙8,099654n/a
20.04 04:00-4,1-10,66,1 ⇙9,099657n/a
20.04 03:50-4,1-10,55,8 ⇙7,999657n/a
20.04 03:40-4,1-8,63,1 ⇙6,199661n/a
20.04 03:30-4,1-9,03,6 ⇙6,599661n/a
20.04 03:20-4,1-9,95,2 ⇙7,099659n/a
20.04 03:10-3,9-9,54,2 ⇙6,999662n/a
20.04 03:00-4,2-9,94,7 ⇙6,999661n/a
20.04 02:50-4,2-9,54,1 ⇙6,599664n/a
20.04 02:40-4,2-10,14,9 ⇙6,499664n/a
20.04 02:30-4,2-10,04,9 ⇙6,699766n/a
20.04 02:20-4,1-10,25,3 ⇙6,999667n/a
20.04 02:10-4,0-10,25,7 ⇙6,999667n/a
20.04 02:00-3,9-10,15,6 ⇙7,599666n/a
20.04 01:50-3,9-10,05,5 ⇙6,899663n/a
20.04 01:40-3,7-9,75,1 ⇙7,099662n/a
20.04 01:30-3,7-9,65,3 ⇙6,999658n/a
20.04 01:20-3,6-9,24,7 ⇙6,999657n/a
20.04 01:10-3,5-8,64,1 ⇙6,699655n/a
20.04 01:00-3,4-8,84,5 ⇙6,599656n/a
20.04 00:50-3,3-8,74,5 ⇙6,899756n/a
20.04 00:40-3,4-7,63,0 ⇙6,099656n/a
20.04 00:30-3,4-8,44,1 ⇙6,099756n/a
20.04 00:20-3,3-7,93,4 ⇙5,099755n/a
20.04 00:10-3,3-8,23,7 ⇙5,399756n/a
20.04 00:00-3,40,01,2 ⇙2,699756n/a
19.04 23:50-3,3-5,71,7 ⇙3,399754n/a
19.04 23:40-3,2-5,81,8 ⇙3,099751n/a
19.04 23:30-3,2-6,42,2 ⇓3,099752n/a
19.04 23:20-3,3-6,12,0 ⇓3,099754n/a
19.04 23:10-3,2-5,41,5 ⇙3,099753n/a
19.04 23:00-3,10,01,3 ⇙3,399754n/a
19.04 22:50-3,2-5,51,6 ⇙2,999753n/a
19.04 22:40-3,10,01,1 ⇙2,199753n/a
19.04 22:30-3,20,01,1 ⇙2,499753n/a
19.04 22:20-3,2-5,01,3 ⇙3,899754n/a
19.04 22:10-3,1-5,61,6 ⇙3,199754n/a
19.04 22:00-3,4-7,43,0 ⇙5,099756n/a
19.04 21:50-3,4-7,73,4 ⇙5,899754n/a
19.04 21:40-3,2-6,82,5 ⇙5,199752n/a
19.04 21:30-3,2-7,53,1 ⇙5,999753n/a
19.04 21:20-3,2-8,54,5 ⇙6,199652n/a
19.04 21:10-3,1-8,85,0 ⇙6,999652n/a
19.04 21:00-3,1-8,44,5 ⇙6,099751n/a
19.04 20:50-3,1-8,44,4 ⇙6,099751n/a
19.04 20:40-3,2-8,44,4 ⇙6,199751n/a
19.04 20:30-3,1-8,85,1 ⇙6,699748n/a
19.04 20:20-3,0-8,74,9 ⇙6,199743n/a
19.04 20:10-3,1-8,24,1 ⇙5,599746n/a
19.04 20:00-3,3-8,84,7 ⇙6,399751n/a
19.04 19:50-3,3-9,25,2 ⇙7,199748n/a
19.04 19:40-3,3-9,55,8 ⇙7,699649n/a
19.04 19:30-3,3-9,35,6 ⇙7,499647n/a
19.04 19:20-3,2-9,05,2 ⇙6,999646n/a
19.04 19:10-3,2-9,05,4 ⇙7,099646n/a
19.04 19:00-2,9-8,85,3 ⇙6,999646n/a
19.04 18:50-3,0-8,95,3 ⇙6,999642n/a
19.04 18:40-3,1-8,74,8 ⇙6,199742n/a
19.04 18:30-3,2-8,94,8 ⇙6,699644n/a
19.04 18:20-3,4-8,94,8 ⇙6,599643n/a
19.04 18:10-3,0-8,44,4 ⇙6,399644n/a
19.04 18:00-3,0-8,34,4 ⇙6,099647n/a
19.04 17:50-3,0-8,34,4 ⇙6,599744n/a
19.04 17:40-3,0-8,44,3 ⇐5,399744n/a
19.04 17:30-3,0-8,24,1 ⇐5,899744n/a
19.04 17:20-3,1-8,74,6 ⇙6,399645n/a
19.04 17:10-3,2-8,74,4 ⇐6,099643n/a
19.04 17:00-3,3-8,44,2 ⇙5,499641n/a
19.04 16:50-3,3-8,64,3 ⇐5,999643n/a
19.04 16:40-3,6-8,74,1 ⇐5,199741n/a
19.04 16:30-3,7-9,24,5 ⇐5,499641n/a
19.04 16:20-3,8-9,24,6 ⇐6,399740n/a
19.04 16:10-3,7-9,04,3 ⇐5,499741n/a
19.04 16:00-3,8-9,14,3 ⇐5,999641n/a
19.04 15:50-4,1-9,54,5 ⇐6,199742n/a
Position: (64.66936111,-50.89555556)

[Back]